Time;durP1;ratioP1;P1;durP2;ratioP2;P2;SDS_P1;SDS_P2;PMS_P1;PMS_P2;Temp;Humidity;BMP_temperature;BMP_pressure;BME280_temperature;BME280_humidity;BME280_pressure;Samples;Min_cycle;Max_cycle;Signal;HPM_P1;HPM_P2
2021/05/03 00:02:07;;;;;;;;;;;7.30;99.90;;;;;;5015652;28;19994;-80
2021/05/03 00:04:32;;;;;;;;;;;7.20;99.90;;;;;;5015269;28;20380;-80
2021/05/03 00:06:58;;;;;;;;;;;7.20;99.90;;;;;;5015376;28;19909;-80
2021/05/03 00:09:23;;;;;;;;;;;7.10;99.90;;;;;;5015231;28;20002;-80
2021/05/03 00:11:49;;;;;;;;;;;7.00;99.90;;;;;;5015375;28;19909;-80
2021/05/03 00:14:14;;;;;;;;;;;7.00;99.90;;;;;;5014915;28;19913;-80
2021/05/03 00:16:40;;;;;;;;;;;7.00;99.90;;;;;;5015264;28;19913;-79
2021/05/03 00:19:05;;;;;;;;;;;7.00;99.90;;;;;;5015299;28;19909;-80
2021/05/03 00:21:31;;;;;;;;;;;6.90;99.90;;;;;;5015186;28;20016;-80
2021/05/03 00:23:56;;;;;;;;;;;6.80;99.90;;;;;;5015101;28;19956;-80
2021/05/03 00:26:22;;;;;;;;;;;6.80;99.90;;;;;;5015463;28;20395;-80
2021/05/03 00:28:47;;;;;;;;;;;6.80;99.90;;;;;;5032769;28;20383;-80
2021/05/03 00:31:13;;;;;;;;;;;6.80;99.90;;;;;;5014966;28;19909;-80
2021/05/03 00:33:38;;;;;;;;;;;6.80;99.90;;;;;;5014897;28;19967;-79
2021/05/03 00:36:04;;;;;;;;;;;6.80;99.90;;;;;;5015162;28;19920;-80
2021/05/03 00:38:31;;;;;;;;;;;6.80;99.90;;;;;;5014914;28;19916;-80
2021/05/03 00:40:57;;;;;;;;;;;6.80;99.90;;;;;;5032706;28;20323;-79
2021/05/03 00:43:22;;;;;;;;;;;6.80;99.90;;;;;;5015290;28;19962;-79
2021/05/03 00:45:48;;;;;;;;;;;6.80;99.90;;;;;;5015052;28;20003;-80
2021/05/03 00:48:15;;;;;;;;;;;6.80;99.90;;;;;;5015008;28;20398;-79
2021/05/03 00:50:40;;;;;;;;;;;6.80;99.90;;;;;;5032427;28;19909;-80
2021/05/03 00:53:06;;;;;;;;;;;6.80;99.90;;;;;;5014875;28;19935;-79
2021/05/03 00:55:32;;;;;;;;;;;6.80;99.90;;;;;;5014810;28;19913;-80
2021/05/03 00:57:58;;;;;;;;;;;6.80;99.90;;;;;;5014863;28;19924;-80
2021/05/03 01:00:24;;;;;;;;;;;6.80;99.90;;;;;;5014770;28;19913;-80
2021/05/03 01:02:50;;;;;;;;;;;6.80;99.90;;;;;;5015291;28;19909;-79
2021/05/03 01:05:16;;;;;;;;;;;6.80;99.90;;;;;;5015233;28;20250;-80
2021/05/03 01:07:42;;;;;;;;;;;6.80;99.90;;;;;;5032715;28;20376;-80
2021/05/03 01:10:07;;;;;;;;;;;6.80;99.90;;;;;;5035565;28;19912;-80
2021/05/03 01:12:33;;;;;;;;;;;6.70;99.90;;;;;;5018765;28;19916;-80
2021/05/03 01:14:58;;;;;;;;;;;6.60;99.90;;;;;;5018323;28;19917;-79
2021/05/03 01:17:33;;;;;;;;;;;6.60;99.90;;;;;;5036362;28;19909;-80
2021/05/03 01:20:06;;;;;;;;;;;6.60;99.90;;;;;;5018700;28;19909;-80
2021/05/03 01:22:35;;;;;;;;;;;6.60;99.90;;;;;;5018593;28;19955;-80
2021/05/03 01:25:01;;;;;;;;;;;6.60;99.90;;;;;;5018748;28;19909;-80
2021/05/03 01:27:26;;;;;;;;;;;6.60;99.90;;;;;;5018786;28;19932;-79
2021/05/03 01:29:51;;;;;;;;;;;6.60;99.90;;;;;;5018460;28;20383;-80
2021/05/03 01:32:17;;;;;;;;;;;6.60;99.90;;;;;;5018580;28;20006;-79
2021/05/03 01:34:43;;;;;;;;;;;6.60;99.90;;;;;;5018820;28;19943;-80
2021/05/03 01:37:12;;;;;;;;;;;6.70;99.90;;;;;;5021483;28;20390;-80
2021/05/03 01:39:37;;;;;;;;;;;6.70;99.90;;;;;;5033409;28;19940;-80
2021/05/03 01:42:03;;;;;;;;;;;6.70;99.90;;;;;;5036025;28;19910;-80
2021/05/03 01:44:28;;;;;;;;;;;6.70;99.90;;;;;;5036559;28;19913;-80
2021/05/03 01:46:54;;;;;;;;;;;6.60;99.90;;;;;;5028493;28;19909;-80
2021/05/03 01:49:20;;;;;;;;;;;6.60;99.90;;;;;;5018295;28;19916;-80
2021/05/03 01:51:45;;;;;;;;;;;6.50;99.90;;;;;;5017971;28;19913;-79
2021/05/03 01:54:10;;;;;;;;;;;6.40;99.90;;;;;;5017556;28;19959;-80
2021/05/03 01:56:36;;;;;;;;;;;6.40;99.90;;;;;;5017979;28;19909;-80
2021/05/03 01:59:04;;;;;;;;;;;6.20;99.90;;;;;;5017955;28;19913;-79
2021/05/03 02:01:29;;;;;;;;;;;6.10;99.90;;;;;;5017942;28;19945;-79
2021/05/03 02:03:55;;;;;;;;;;;6.00;99.90;;;;;;5017985;28;19909;-79
2021/05/03 02:06:20;;;;;;;;;;;5.90;99.90;;;;;;5017566;28;19913;-79
2021/05/03 02:08:47;;;;;;;;;;;5.90;99.90;;;;;;5035400;28;19909;-80
2021/05/03 02:11:12;;;;;;;;;;;5.80;99.90;;;;;;5017365;28;19963;-79
2021/05/03 02:13:38;;;;;;;;;;;5.80;99.90;;;;;;5017127;28;19917;-79
2021/05/03 02:16:04;;;;;;;;;;;5.80;99.90;;;;;;5035054;28;20364;-79
2021/05/03 02:18:30;;;;;;;;;;;5.80;99.90;;;;;;5017336;28;20394;-79
2021/05/03 02:20:55;;;;;;;;;;;5.80;99.90;;;;;;5035060;28;19909;-80
2021/05/03 02:23:21;;;;;;;;;;;5.80;99.90;;;;;;5017353;28;20353;-80
2021/05/03 02:25:46;;;;;;;;;;;5.90;99.90;;;;;;5017021;28;19916;-79
2021/05/03 02:28:12;;;;;;;;;;;5.90;99.90;;;;;;5017147;28;19909;-80
2021/05/03 02:30:38;;;;;;;;;;;5.90;99.90;;;;;;5017117;28;19909;-79
2021/05/03 02:33:04;;;;;;;;;;;5.80;99.90;;;;;;5017001;28;19953;-80
2021/05/03 02:35:32;;;;;;;;;;;5.80;99.90;;;;;;5016937;28;19909;-80
2021/05/03 02:37:59;;;;;;;;;;;5.80;99.90;;;;;;5016822;28;20385;-79
2021/05/03 02:40:25;;;;;;;;;;;5.70;99.90;;;;;;5016686;28;20359;-79
2021/05/03 02:42:51;;;;;;;;;;;5.80;99.90;;;;;;5017041;28;19909;-79
2021/05/03 02:45:17;;;;;;;;;;;5.70;99.90;;;;;;5034162;28;19910;-79
2021/05/03 02:47:43;;;;;;;;;;;5.70;99.90;;;;;;5017993;28;19913;-80
2021/05/03 02:50:09;;;;;;;;;;;5.70;99.90;;;;;;5017471;28;20381;-79
2021/05/03 02:52:35;;;;;;;;;;;5.70;99.90;;;;;;5016578;28;20249;-79
2021/05/03 02:55:00;;;;;;;;;;;5.70;99.90;;;;;;5016416;28;19916;-79
2021/05/03 02:57:26;;;;;;;;;;;5.70;99.90;;;;;;5016690;28;19910;-79
2021/05/03 02:59:51;;;;;;;;;;;5.60;99.90;;;;;;5016191;28;19910;-79
2021/05/03 03:02:17;;;;;;;;;;;5.70;99.90;;;;;;5016385;28;20360;-79
2021/05/03 03:04:42;;;;;;;;;;;5.70;99.90;;;;;;5033911;28;19920;-79
2021/05/03 03:07:08;;;;;;;;;;;5.80;99.90;;;;;;5016304;28;20000;-79
2021/05/03 03:09:33;;;;;;;;;;;5.90;99.90;;;;;;5016375;28;19913;-79
2021/05/03 03:12:00;;;;;;;;;;;6.10;99.90;;;;;;5016536;28;19909;-79
2021/05/03 03:14:25;;;;;;;;;;;6.20;99.90;;;;;;5015994;28;20335;-79
2021/05/03 03:16:51;;;;;;;;;;;6.20;99.90;;;;;;5016186;28;19910;-79
2021/05/03 03:19:16;;;;;;;;;;;6.20;99.90;;;;;;5016016;28;19916;-79
2021/05/03 03:21:42;;;;;;;;;;;6.20;99.90;;;;;;5015979;28;19978;-79
2021/05/03 03:24:07;;;;;;;;;;;6.20;99.90;;;;;;5015756;28;19909;-79
2021/05/03 03:26:33;;;;;;;;;;;6.20;99.90;;;;;;5015997;28;19992;-79
2021/05/03 03:28:58;;;;;;;;;;;6.30;99.90;;;;;;5016128;28;19909;-79
2021/05/03 03:31:24;;;;;;;;;;;6.30;99.90;;;;;;5015382;28;20009;-79
2021/05/03 03:33:49;;;;;;;;;;;6.30;99.90;;;;;;5015594;28;19913;-79
2021/05/03 03:36:15;;;;;;;;;;;6.30;99.90;;;;;;5015656;28;19963;-79
2021/05/03 03:38:40;;;;;;;;;;;6.30;99.90;;;;;;5015539;28;19925;-79
2021/05/03 03:41:06;;;;;;;;;;;6.30;99.90;;;;;;5015765;28;19917;-80
2021/05/03 03:43:31;;;;;;;;;;;6.10;99.90;;;;;;5015825;28;19913;-79
2021/05/03 03:45:57;;;;;;;;;;;6.10;99.90;;;;;;5015996;28;19916;-79
2021/05/03 03:48:22;;;;;;;;;;;6.10;99.90;;;;;;5033442;28;19959;-79
2021/05/03 03:50:48;;;;;;;;;;;6.10;99.90;;;;;;5015487;28;19909;-79
2021/05/03 03:53:16;;;;;;;;;;;6.00;99.90;;;;;;5033199;28;20014;-79
2021/05/03 03:55:42;;;;;;;;;;;6.00;99.90;;;;;;5015512;28;20391;-80
2021/05/03 03:58:08;;;;;;;;;;;6.00;99.90;;;;;;5015503;28;19909;-79
2021/05/03 04:00:33;;;;;;;;;;;6.00;99.90;;;;;;5015361;28;19909;-79
2021/05/03 04:02:59;;;;;;;;;;;6.10;99.90;;;;;;5015539;28;19916;-79
2021/05/03 04:05:56;;;;;;;;;;;6.10;99.90;;;;;;5015340;28;19917;-79
2021/05/03 04:08:44;;;;;;;;;;;6.10;99.90;;;;;;5015461;28;19916;-79
2021/05/03 04:11:41;;;;;;;;;;;6.10;99.90;;;;;;5015818;28;20003;-80
2021/05/03 04:14:12;;;;;;;;;;;6.10;99.90;;;;;;5030837;28;19959;-80
2021/05/03 04:24:52;;;;;;;;;;;6.20;99.90;;;;;;5033173;28;19922;-80
2021/05/03 04:27:17;;;;;;;;;;;6.20;99.90;;;;;;5015287;28;19909;-80
2021/05/03 04:29:43;;;;;;;;;;;6.20;99.90;;;;;;5015482;28;19920;-80
2021/05/03 04:32:08;;;;;;;;;;;6.10;99.90;;;;;;5015232;28;19910;-80
2021/05/03 04:34:34;;;;;;;;;;;6.00;99.90;;;;;;5014876;28;19949;-80
2021/05/03 04:36:59;;;;;;;;;;;6.00;99.90;;;;;;5014973;28;20364;-79
2021/05/03 04:39:25;;;;;;;;;;;6.10;99.90;;;;;;5014956;28;19961;-80
2021/05/03 04:41:50;;;;;;;;;;;6.10;99.90;;;;;;5033202;28;19909;-79
2021/05/03 04:44:16;;;;;;;;;;;6.10;99.90;;;;;;5018847;28;19917;-79
2021/05/03 04:46:41;;;;;;;;;;;6.00;99.90;;;;;;5052350;28;19931;-79
2021/05/03 04:49:07;;;;;;;;;;;5.90;99.90;;;;;;5036671;28;19909;-80
2021/05/03 04:51:32;;;;;;;;;;;5.90;99.90;;;;;;5033743;28;19920;-79
2021/05/03 04:53:58;;;;;;;;;;;5.90;99.90;;;;;;5045489;28;20007;-79
2021/05/03 04:56:23;;;;;;;;;;;6.10;99.90;;;;;;5018069;28;19916;-79
2021/05/03 04:58:49;;;;;;;;;;;6.20;99.90;;;;;;5040446;28;19909;-78
2021/05/03 05:01:14;;;;;;;;;;;6.30;99.90;;;;;;5017376;28;20371;-77
2021/05/03 05:03:40;;;;;;;;;;;6.50;99.90;;;;;;5018841;28;19893;-79
2021/05/03 05:06:05;;;;;;;;;;;6.70;99.90;;;;;;5023572;28;19939;-79
2021/05/03 05:08:31;;;;;;;;;;;6.90;99.90;;;;;;5019196;28;19913;-79
2021/05/03 05:10:57;;;;;;;;;;;7.20;99.90;;;;;;5036083;28;19916;-79
2021/05/03 05:13:22;;;;;;;;;;;7.40;99.90;;;;;;5018560;28;20384;-79
2021/05/03 05:15:47;;;;;;;;;;;7.60;99.90;;;;;;5018143;28;20015;-79
2021/05/03 05:18:13;;;;;;;;;;;7.70;99.90;;;;;;5018370;28;20368;-79
2021/05/03 05:20:39;;;;;;;;;;;7.70;99.90;;;;;;5020604;28;19916;-80
2021/05/03 05:23:05;;;;;;;;;;;7.60;99.90;;;;;;5022033;28;19913;-79
2021/05/03 05:25:31;;;;;;;;;;;7.40;99.90;;;;;;5023236;28;19913;-79
2021/05/03 05:27:56;;;;;;;;;;;7.40;99.90;;;;;;5022905;28;20297;-79
2021/05/03 05:30:22;;;;;;;;;;;7.50;99.90;;;;;;5036922;28;19986;-79
2021/05/03 05:32:47;;;;;;;;;;;7.50;99.90;;;;;;5018494;28;19921;-79
2021/05/03 05:35:13;;;;;;;;;;;7.70;99.90;;;;;;5017930;28;19920;-79
2021/05/03 05:37:38;;;;;;;;;;;8.20;99.90;;;;;;5017495;28;19916;-79
2021/05/03 05:40:07;;;;;;;;;;;9.30;99.90;;;;;;5018667;28;20000;-79
2021/05/03 05:42:32;;;;;;;;;;;9.60;99.90;;;;;;5010138;28;19913;-79
2021/05/03 05:44:58;;;;;;;;;;;10.20;99.90;;;;;;4999835;28;20319;-79
2021/05/03 05:47:24;;;;;;;;;;;10.40;99.90;;;;;;4999079;28;19975;-79
2021/05/03 05:49:49;;;;;;;;;;;10.10;99.90;;;;;;4998344;28;19914;-79
2021/05/03 05:52:15;;;;;;;6.13;2.55;;;9.80;99.90;;;;;;4997270;28;19916;-79
2021/05/03 05:54:40;;;;;;;3.30;2.30;;;10.20;99.90;;;;;;5003179;28;20029;-79
2021/05/03 05:57:06;;;;;;;4.05;3.10;;;11.30;99.90;;;;;;5014255;28;20022;-79
2021/05/03 05:59:32;;;;;;;3.80;2.55;;;11.90;99.90;;;;;;4998286;28;20076;-79
2021/05/03 06:01:57;;;;;;;2.58;2.13;;;12.80;99.90;;;;;;5007383;28;20032;-79
2021/05/03 06:04:23;;;;;;;4.30;2.83;;;13.90;99.90;;;;;;5017329;28;20025;-79
2021/05/03 06:06:49;;;;;;;;;;;14.80;99.90;;;;;;5019844;28;20029;-79
2021/05/03 06:09:14;;;;;;;;;;;16.30;95.60;;;;;;5021991;28;19905;-81
2021/05/03 06:11:40;;;;;;;;;;;17.00;91.80;;;;;;5018540;28;19909;-80
2021/05/03 06:14:05;;;;;;;;;;;17.90;87.40;;;;;;5018229;28;19924;-82
2021/05/03 06:16:31;;;;;;;2.53;2.30;;;18.70;79.20;;;;;;5019442;28;19947;-80
2021/05/03 06:18:57;;;;;;;3.45;2.40;;;19.30;75.60;;;;;;5021442;28;20060;-80
2021/05/03 06:21:22;;;;;;;4.10;2.08;;;20.50;69.70;;;;;;5022011;28;20029;-80
2021/05/03 06:23:48;;;;;;;2.53;2.10;;;20.80;66.50;;;;;;5038518;28;20025;-80
2021/05/03 06:26:13;;;;;;;3.25;2.20;;;21.10;63.30;;;;;;5021339;28;20033;-82
2021/05/03 06:28:39;;;;;;;3.80;2.55;;;21.40;60.80;;;;;;5020646;28;20507;-80
2021/05/03 06:31:05;;;;;;;3.25;2.50;;;21.40;61.50;;;;;;5021286;28;20495;-79
2021/05/03 06:33:30;;;;;;;2.72;2.40;;;21.70;60.00;;;;;;5024792;28;20112;-80
2021/05/03 06:35:56;;;;;;;1.95;1.75;;;21.80;59.20;;;;;;5022403;28;20032;-77
2021/05/03 06:38:21;;;;;;;3.50;2.25;;;22.20;58.40;;;;;;5050556;28;20029;-77
2021/05/03 06:40:48;;;;;;;4.75;2.17;;;22.00;56.10;;;;;;5039351;28;20021;-79
2021/05/03 06:43:14;;;;;;;;;;;22.10;56.20;;;;;;5019578;28;20025;-78
2021/05/03 06:45:39;;;;;;;;;;;22.30;55.40;;;;;;5020012;28;19905;-80
2021/05/03 06:48:08;;;;;;;;;;;22.30;54.70;;;;;;5020713;28;20374;-79
2021/05/03 06:50:33;;;;;;;;;;;22.40;55.40;;;;;;5040568;28;19909;-80
2021/05/03 06:52:59;;;;;;;;;;;23.20;55.00;;;;;;5024346;28;20248;-80
2021/05/03 06:55:24;;;;;;;4.20;2.53;;;24.10;51.90;;;;;;5023089;28;19905;-79
2021/05/03 06:57:50;;;;;;;3.80;2.88;;;23.80;51.40;;;;;;5024239;28;20032;-80
2021/05/03 07:00:16;;;;;;;4.40;2.63;;;24.30;52.10;;;;;;5043118;28;20044;-80
2021/05/03 07:02:43;;;;;;;2.37;2.00;;;23.90;50.20;;;;;;5025403;28;20035;-79
2021/05/03 07:05:09;;;;;;;;;;;23.90;49.70;;;;;;5025809;28;20409;-79
2021/05/03 07:07:35;;;;;;;2.53;2.33;;;24.90;49.10;;;;;;5040731;28;20359;-79
2021/05/03 07:10:00;;;;;;;;;;;24.10;49.30;;;;;;5041691;28;20029;-79
2021/05/03 07:12:26;;;;;;;2.05;1.85;;;23.10;49.40;;;;;;5043971;28;20180;-80
2021/05/03 07:14:52;;;;;;;8.63;2.55;;;23.40;49.30;;;;;;5032394;28;20033;-81
2021/05/03 07:17:18;;;;;;;1.93;1.63;;;24.50;48.50;;;;;;5045977;28;20078;-80
2021/05/03 07:19:44;;;;;;;2.50;1.73;;;24.40;49.70;;;;;;5062520;28;20084;-80
2021/05/03 07:22:11;;;;;;;1.75;1.50;;;25.00;48.10;;;;;;5045172;28;20028;-81
2021/05/03 07:24:37;;;;;;;;;;;26.20;49.00;;;;;;5044674;28;20040;-81
2021/05/03 07:27:05;;;;;;;1.20;1.10;;;25.60;45.50;;;;;;5062715;28;19905;-81
2021/05/03 07:29:30;;;;;;;2.60;2.13;;;25.20;44.60;;;;;;5045277;28;20443;-81
2021/05/03 07:31:56;;;;;;;2.10;1.90;;;26.10;46.80;;;;;;5046354;28;20033;-80
2021/05/03 07:34:21;;;;;;;1.83;1.37;;;25.60;46.30;;;;;;5044118;28;20116;-79
2021/05/03 07:36:47;;;;;;;1.77;1.67;;;25.80;45.70;;;;;;5045240;28;20075;-80
2021/05/03 07:39:13;;;;;;;1.90;1.80;;;25.70;44.40;;;;;;5060649;28;20083;-81
2021/05/03 07:41:41;;;;;;;1.40;1.30;;;26.70;45.00;;;;;;5040258;28;20021;-81
2021/05/03 07:44:08;;;;;;;1.73;1.55;;;27.20;42.10;;;;;;5041388;28;20032;-81
2021/05/03 07:46:34;;;;;;;1.60;1.50;;;25.30;44.80;;;;;;5054264;28;20064;-79
2021/05/03 07:49:01;;;;;;;1.37;1.27;;;24.60;44.70;;;;;;5035321;28;20048;-80
2021/05/03 07:51:27;;;;;;;;;;;25.20;43.50;;;;;;5027348;28;20083;-80
2021/05/03 07:53:52;;;;;;;;;;;26.50;45.40;;;;;;5023325;28;19909;-80
2021/05/03 07:56:18;;;;;;;;;;;26.00;43.50;;;;;;5024706;28;19916;-80
2021/05/03 07:58:44;;;;;;;;;;;25.60;42.40;;;;;;5022179;28;19992;-80
2021/05/03 08:01:10;;;;;;;3.03;2.17;;;26.10;46.90;;;;;;5025057;28;19905;-80
2021/05/03 08:03:39;;;;;;;4.68;2.22;;;26.30;43.90;;;;;;5022618;28;20029;-80
2021/05/03 08:06:05;;;;;;;2.05;1.45;;;26.80;44.40;;;;;;5022008;28;20079;-81
2021/05/03 08:08:31;;;;;;;;;;;27.40;44.20;;;;;;5020678;28;20021;-81
2021/05/03 08:10:56;;;;;;;1.80;1.57;;;26.60;43.30;;;;;;5020814;28;19970;-81
2021/05/03 08:13:23;;;;;;;2.40;1.70;;;26.80;44.00;;;;;;5037877;28;20026;-80
2021/05/03 08:15:51;;;;;;;;;;;26.20;43.20;;;;;;5018354;28;20381;-80
2021/05/03 08:18:16;;;;;;;2.25;1.95;;;26.90;43.00;;;;;;5017892;28;19920;-80
2021/05/03 08:20:42;;;;;;;;;;;27.40;42.70;;;;;;5018268;28;20029;-80
2021/05/03 08:23:09;;;;;;;;;;;26.60;42.30;;;;;;5019321;28;20136;-79
2021/05/03 08:25:36;;;;;;;1.67;1.50;;;27.20;43.80;;;;;;5040959;28;19905;-79
2021/05/03 08:28:02;;;;;;;;;;;27.30;42.40;;;;;;5021247;28;20030;-79
2021/05/03 08:30:27;;;;;;;;;;;27.10;42.90;;;;;;5024697;28;19905;-79
2021/05/03 08:32:53;;;;;;;;;;;26.10;43.00;;;;;;5042849;28;19941;-79
2021/05/03 08:35:19;;;;;;;;;;;26.40;43.50;;;;;;5023844;28;19911;-81
2021/05/03 08:37:44;;;;;;;;;;;26.90;41.90;;;;;;5021002;28;19913;-81
2021/05/03 08:40:11;;;;;;;;;;;25.70;41.40;;;;;;5018751;28;19905;-83
2021/05/03 08:42:37;;;;;;;;;;;24.90;44.10;;;;;;5018446;28;19905;-81
2021/05/03 08:45:03;;;;;;;2.40;2.10;;;25.20;44.00;;;;;;5017558;28;19913;-81
2021/05/03 08:47:34;;;;;;;3.85;1.98;;;24.80;44.60;;;;;;5018432;28;20030;-83
2021/05/03 08:50:26;;;;;;;4.15;2.45;;;25.80;43.10;;;;;;5017982;28;20034;-80
2021/05/03 08:52:54;;;;;;;2.10;1.90;;;26.40;43.00;;;;;;5035719;28;20040;-81
2021/05/03 08:55:19;;;;;;;2.40;2.15;;;26.30;41.70;;;;;;5017881;28;20029;-81
2021/05/03 08:57:45;;;;;;;1.77;1.67;;;27.00;43.10;;;;;;5017963;28;20021;-80
2021/05/03 09:00:13;;;;;;;2.77;1.90;;;28.80;43.60;;;;;;5018989;28;20029;-81
2021/05/03 09:02:40;;;;;;;3.85;2.75;;;29.40;41.70;;;;;;5034018;28;20022;-81
2021/05/03 09:05:09;;;;;;;2.72;2.08;;;29.20;40.50;;;;;;5033538;28;20075;-83
2021/05/03 09:07:35;;;;;;;;;;;28.40;40.60;;;;;;5035228;28;20022;-81
2021/05/03 09:10:12;;;;;;;;;;;28.60;41.60;;;;;;5016630;28;19905;-80
2021/05/03 09:12:37;;;;;;;;;;;28.70;41.60;;;;;;5035824;28;19940;-83
2021/05/03 09:15:03;;;;;;;2.47;2.23;;;30.00;41.80;;;;;;5018216;28;19923;-80
2021/05/03 09:17:31;;;;;;;;;;;28.60;38.60;;;;;;5035493;28;20037;-80
2021/05/03 09:19:58;;;;;;;;;;;27.70;39.20;;;;;;5018052;28;19944;-81
2021/05/03 09:22:47;;;;;;;2.42;2.22;;;26.30;42.80;;;;;;5017526;28;19955;-80
2021/05/03 09:25:18;;;;;;;;;;;24.40;43.80;;;;;;5035525;28;20018;-81
2021/05/03 09:27:44;;;;;;;;;;;22.40;47.60;;;;;;5016918;28;19909;-80
2021/05/03 09:30:10;;;;;;;;;;;23.30;46.00;;;;;;5018285;28;19905;-80
2021/05/03 09:32:35;;;;;;;;;;;21.60;48.00;;;;;;5020228;28;19905;-80
2021/05/03 09:35:00;;;;;;;;;;;20.30;49.50;;;;;;5020252;28;20323;-80
2021/05/03 09:37:34;;;;;;;;;;;21.20;51.30;;;;;;5020706;28;19912;-82
2021/05/03 09:40:15;;;;;;;;;;;21.50;50.40;;;;;;5020211;28;19904;-80
2021/05/03 09:42:44;;;;;;;;;;;23.70;48.20;;;;;;5020549;28;19905;-80
2021/05/03 09:45:09;;;;;;;;;;;22.10;45.60;;;;;;5019949;28;19905;-82
2021/05/03 09:47:35;;;;;;;;;;;20.10;48.70;;;;;;5020521;28;19920;-80
2021/05/03 09:50:05;;;;;;;;;;;18.50;53.50;;;;;;5020393;28;19911;-80
2021/05/03 09:52:31;;;;;;;;;;;18.00;54.20;;;;;;5020221;28;20322;-83
2021/05/03 09:54:56;;;;;;;;;;;17.90;53.40;;;;;;5020918;28;19976;-82
2021/05/03 09:57:22;;;;;;;;;;;17.60;55.70;;;;;;5023529;28;19954;-82
2021/05/03 09:59:48;;;;;;;;;;;17.50;55.30;;;;;;5023478;28;20360;-82
2021/05/03 10:02:29;;;;;;;;;;;17.40;58.90;;;;;;5021430;28;19944;-81
2021/05/03 10:04:59;;;;;;;;;;;18.30;55.60;;;;;;5023474;28;20399;-81
2021/05/03 10:07:25;;;;;;;;;;;20.80;49.30;;;;;;5041535;28;19913;-80
2021/05/03 10:09:58;;;;;;;;;;;24.30;48.00;;;;;;5022059;28;19944;-79
2021/05/03 10:12:26;;;;;;;2.38;1.88;;;25.60;43.80;;;;;;5020208;28;20338;-80
2021/05/03 10:14:52;;;;;;;3.15;2.10;;;26.60;44.30;;;;;;5035283;28;20056;-80
2021/05/03 10:17:18;;;;;;;;;;;26.90;41.40;;;;;;5038313;28;20050;-80
2021/05/03 10:19:45;;;;;;;2.33;1.77;;;26.40;42.20;;;;;;5019292;28;19971;-80
2021/05/03 10:22:17;;;;;;;2.60;2.35;;;24.70;40.60;;;;;;5036691;28;20348;-79
2021/05/03 10:24:44;;;;;;;;;;;22.70;45.10;;;;;;5034919;28;20025;-82
2021/05/03 10:27:10;;;;;;;;;;;21.00;46.70;;;;;;5021179;28;19917;-85
2021/05/03 10:29:42;;;;;;;;;;;20.10;48.40;;;;;;5019695;28;19944;-82
2021/05/03 10:32:12;;;;;;;;;;;20.20;48.00;;;;;;5019718;28;19905;-80
2021/05/03 10:34:41;;;;;;;1.95;1.60;;;22.00;47.90;;;;;;5019244;28;19917;-79
2021/05/03 10:37:25;;;;;;;;;;;21.90;45.00;;;;;;5020000;28;20395;-80
2021/05/03 10:39:51;;;;;;;;;;;20.80;47.60;;;;;;5020187;28;20272;-79
2021/05/03 10:42:16;;;;;;;;;;;19.40;47.70;;;;;;5019991;28;19905;-81
2021/05/03 10:45:01;;;;;;;;;;;18.30;50.30;;;;;;5020388;28;19905;-81
2021/05/03 10:47:27;;;;;;;;;;;17.60;50.20;;;;;;5018820;28;19912;-82
2021/05/03 10:49:53;;;;;;;;;;;16.60;52.30;;;;;;5018182;28;19913;-81
2021/05/03 10:52:31;;;;;;;;;;;15.90;53.90;;;;;;5017004;28;19909;-81
2021/05/03 10:54:56;;;;;;;;;;;15.60;53.30;;;;;;5016935;28;20323;-81
2021/05/03 10:57:22;;;;;;;;;;;15.40;54.30;;;;;;5034054;28;19905;-81
2021/05/03 10:59:48;;;;;;;;;;;15.60;55.20;;;;;;5016001;28;19905;-81
2021/05/03 11:02:14;;;;;;;;;;;17.50;54.10;;;;;;5016792;28;20342;-82
2021/05/03 11:05:13;;;;;;;1.80;1.65;;;20.90;50.00;;;;;;5015964;28;19905;-81
2021/05/03 11:08:04;;;;;;;1.23;1.17;;;23.80;43.50;;;;;;5016859;28;20536;-79
2021/05/03 11:11:04;;;;;;;1.33;1.17;;;25.30;42.00;;;;;;5032348;28;20036;-80
2021/05/03 11:14:07;;;;;;;1.60;1.17;;;24.30;43.30;;;;;;5015324;28;20017;-80
2021/05/03 11:16:35;;;;;;;3.70;2.35;;;22.60;45.10;;;;;;5006516;28;20132;-81
2021/05/03 11:19:22;;;;;;;2.53;2.28;;;21.20;46.10;;;;;;5023635;28;20024;-79
2021/05/03 11:21:49;;;;;;;3.22;2.00;;;19.60;47.60;;;;;;5031011;28;20023;-80
2021/05/03 11:24:22;;;;;;;1.30;1.20;;;19.30;49.80;;;;;;5015399;28;20029;-80
2021/05/03 11:26:54;;;;;;;2.75;1.60;;;20.30;50.50;;;;;;5031677;28;20017;-81
2021/05/03 11:29:23;;;;;;;2.20;1.70;;;21.50;46.30;;;;;;5032951;28;20017;-81
2021/05/03 11:31:49;;;;;;;;;;;21.30;46.90;;;;;;5015414;28;20121;-79
2021/05/03 11:34:39;;;;;;;;;;;20.00;46.80;;;;;;5015585;28;20346;-81
2021/05/03 11:37:07;;;;;;;;;;;19.00;50.70;;;;;;5032758;28;19916;-81
2021/05/03 11:40:27;;;;;;;;;;;18.80;50.40;;;;;;5016732;28;19908;-80
2021/05/03 11:42:50;;;;;;;;;;;18.90;50.40;;;;;;5019346;28;19912;-81
2021/05/03 11:45:17;;;;;;;;;;;20.50;49.00;;;;;;5011682;28;19905;-81
2021/05/03 11:47:42;;;;;;;;;;;21.40;45.90;;;;;;4979746;28;19913;-81
2021/05/03 11:50:08;;;;;;;;;;;21.00;47.30;;;;;;5021236;28;20430;-80
2021/05/03 11:52:35;;;;;;;;;;;20.80;49.80;;;;;;5015024;28;20360;-80
2021/05/03 11:55:17;;;;;;;;;;;20.40;48.00;;;;;;5015971;28;19932;-80
2021/05/03 11:57:47;;;;;;;;;;;19.90;50.00;;;;;;5016219;28;20343;-81
2021/05/03 12:00:22;;;;;;;;;;;19.70;50.10;;;;;;5033542;28;19928;-80
2021/05/03 12:02:59;;;;;;;;;;;19.90;49.30;;;;;;5003530;28;19905;-81
2021/05/03 12:05:25;;;;;;;;;;;19.20;47.80;;;;;;4996091;28;19905;-82
2021/05/03 12:07:50;;;;;;;;;;;19.00;47.90;;;;;;4996094;28;19913;-81
2021/05/03 12:10:17;;;;;;;;;;;18.60;48.20;;;;;;4995319;28;19909;-80
2021/05/03 12:12:46;;;;;;;;;;;18.10;49.70;;;;;;4996841;28;19958;-79
2021/05/03 12:15:16;;;;;;;;;;;17.60;50.70;;;;;;5012670;28;19978;-80
2021/05/03 12:17:42;;;;;;;;;;;17.80;50.10;;;;;;4996774;28;19911;-79
2021/05/03 12:20:12;;;;;;;;;;;17.70;49.30;;;;;;5012697;28;19905;-80
2021/05/03 12:22:38;;;;;;;;;;;17.80;50.90;;;;;;5002285;28;19905;-79
2021/05/03 12:25:09;;;;;;;;;;;17.80;49.80;;;;;;5009876;28;19936;-79
2021/05/03 12:27:36;;;;;;;;;;;18.00;50.60;;;;;;4994338;28;19981;-82
2021/05/03 12:30:03;;;;;;;;;;;18.30;51.90;;;;;;5011513;28;19905;-82
2021/05/03 12:32:34;;;;;;;;;;;18.30;50.60;;;;;;4993758;28;19983;-82
2021/05/03 12:35:04;;;;;;;;;;;18.30;50.10;;;;;;4993822;28;19938;-82
2021/05/03 12:37:30;;;;;;;;;;;18.10;49.90;;;;;;5010821;28;19906;-81
2021/05/03 12:39:57;;;;;;;;;;;18.60;50.60;;;;;;5028393;28;19911;-79
2021/05/03 12:42:23;;;;;;;;;;;18.40;51.40;;;;;;5015330;28;20166;-81
2021/05/03 12:44:53;;;;;;;;;;;18.70;52.00;;;;;;5014659;28;19951;-79
2021/05/03 12:47:24;;;;;;;;;;;18.80;50.40;;;;;;5029978;28;19992;-80
2021/05/03 12:49:53;;;;;;;;;;;18.90;51.80;;;;;;5032766;28;19905;-80
2021/05/03 12:52:26;;;;;;;;;;;18.90;54.20;;;;;;5032247;28;19912;-78
2021/05/03 12:55:02;;;;;;;;;;;18.80;50.00;;;;;;5032033;28;20004;-79
2021/05/03 12:57:49;;;;;;;;;;;19.20;53.00;;;;;;5033026;28;19967;-81
2021/05/03 13:00:20;;;;;;;;;;;19.40;49.20;;;;;;5014164;28;19964;-79
2021/05/03 13:03:04;;;;;;;;;;;18.80;48.20;;;;;;5014500;28;20325;-79
2021/05/03 13:05:41;;;;;;;;;;;18.20;50.70;;;;;;5016093;28;19906;-79
2021/05/03 13:22:32;;;;;;;;;;;18.30;49.40;;;;;;5035790;28;20028;-79
2021/05/03 13:25:32;;;;;;;;;;;18.70;48.30;;;;;;5035899;28;20257;-80
2021/05/03 13:28:06;;;;;;;1.77;1.20;;;18.30;49.80;;;;;;5017999;28;19905;-80
2021/05/03 13:30:31;;;;;;;;;;;18.00;49.60;;;;;;5035395;28;20029;-79
2021/05/03 13:32:58;;;;;;;1.15;1.00;;;17.70;50.60;;;;;;5035167;28;20007;-79
2021/05/03 13:35:24;;;;;;;;;;;17.40;53.00;;;;;;5036422;28;20037;-81
2021/05/03 13:37:49;;;;;;;;;;;17.70;52.20;;;;;;5024524;28;19905;-81
2021/05/03 13:40:15;;;;;;;;;;;18.20;50.50;;;;;;5020727;28;19955;-81
2021/05/03 13:42:45;;;;;;;1.40;1.27;;;18.60;50.30;;;;;;5038796;28;19913;-80
2021/05/03 13:45:10;;;;;;;;;;;18.10;47.80;;;;;;5020122;28;19905;-80
2021/05/03 13:47:36;;;;;;;;;;;17.50;49.80;;;;;;5018360;28;20479;-80
2021/05/03 13:50:02;;;;;;;;;;;17.30;50.80;;;;;;5019161;28;20388;-80
2021/05/03 13:52:27;;;;;;;2.05;1.00;;;17.10;50.90;;;;;;5017229;28;19955;-79
2021/05/03 13:54:53;;;;;;;0.90;0.90;;;17.20;51.70;;;;;;5033743;28;20030;-79
2021/05/03 13:57:18;;;;;;;1.90;1.20;;;17.80;50.70;;;;;;5035421;28;20029;-79
2021/05/03 13:59:44;;;;;;;0.82;0.82;;;17.90;48.60;;;;;;5033524;28;20022;-80
2021/05/03 14:02:10;;;;;;;1.05;0.98;;;17.80;50.70;;;;;;5033897;28;20101;-80
2021/05/03 14:04:35;;;;;;;1.23;1.08;;;18.20;50.00;;;;;;5033430;28;20026;-79
2021/05/03 14:07:01;;;;;;;;;;;18.50;49.60;;;;;;5018563;28;19911;-81
2021/05/03 14:09:27;;;;;;;;;;;18.70;51.90;;;;;;5036332;28;19913;-80
2021/05/03 14:11:53;;;;;;;;;;;18.50;49.00;;;;;;5017284;28;19909;-80
2021/05/03 14:14:18;;;;;;;;;;;17.70;49.20;;;;;;5035110;28;20007;-80
2021/05/03 14:16:45;;;;;;;;;;;17.00;51.60;;;;;;5017047;28;19958;-80
2021/05/03 14:19:14;;;;;;;;;;;16.80;52.10;;;;;;5017526;28;19905;-80
2021/05/03 14:21:40;;;;;;;;;;;16.70;51.80;;;;;;5017209;28;19920;-80
2021/05/03 14:24:06;;;;;;;;;;;16.80;53.00;;;;;;5017934;28;19905;-79
2021/05/03 14:26:33;;;;;;;1.70;1.00;;;17.00;53.10;;;;;;5016957;28;19924;-79